createdAt,value
2022-11-07T00:29:20.082Z,1006.7
2022-11-07T00:34:20.273Z,1006.7
2022-11-07T00:39:19.580Z,1006.7
2022-11-07T00:44:19.923Z,1006.7
2022-11-07T00:49:20.134Z,1006.9
2022-11-07T00:54:20.354Z,1006.9
2022-11-07T00:59:19.523Z,1006.9
2022-11-07T01:04:19.898Z,1006.9
2022-11-07T01:09:19.539Z,1007
2022-11-07T01:14:19.958Z,1007
2022-11-07T01:19:20.230Z,1007.1
2022-11-07T01:24:19.489Z,1007.1
2022-11-07T01:29:19.904Z,1007.2
2022-11-07T01:34:20.196Z,1007.2
2022-11-07T01:39:19.547Z,1007.2
2022-11-07T01:44:20.110Z,1007.2
2022-11-07T01:49:20.377Z,1007.1
2022-11-07T01:54:19.705Z,1007.1
2022-11-07T01:59:19.878Z,1007.1
2022-11-07T02:04:20.105Z,1007.1
2022-11-07T02:09:20.387Z,1007
2022-11-07T02:14:19.502Z,1007
2022-11-07T02:19:19.616Z,1007.1
2022-11-07T02:24:19.820Z,1007.1
2022-11-07T02:29:19.962Z,1007.1
2022-11-07T02:34:20.191Z,1007.1
2022-11-07T02:39:20.362Z,1007.1
2022-11-07T02:44:19.614Z,1007.1
2022-11-07T02:49:19.953Z,1007.1
2022-11-07T02:54:19.651Z,1007.1
2022-11-07T02:59:27.245Z,1007.1
2022-11-07T03:04:19.906Z,1007.1
2022-11-07T03:09:19.789Z,1007.1
2022-11-07T03:14:20.561Z,1007.1
2022-11-07T03:19:19.711Z,1007.1
2022-11-07T03:24:19.618Z,1007.1
2022-11-07T03:29:20.275Z,1007.1
2022-11-07T03:34:20.193Z,1007.1
2022-11-07T03:39:26.186Z,1007.1
2022-11-07T03:44:19.926Z,1007.1
2022-11-07T03:49:20.134Z,1007.2
2022-11-07T03:54:20.382Z,1007.2
2022-11-07T03:59:19.798Z,1007.2
2022-11-07T04:04:19.552Z,1007.2
2022-11-07T04:09:19.631Z,1007.2
2022-11-07T04:14:20.266Z,1007.2
2022-11-07T04:19:19.533Z,1007.2
2022-11-07T04:24:19.899Z,1007.2
2022-11-07T04:29:20.161Z,1007.1
2022-11-07T04:34:20.494Z,1007.1
2022-11-07T04:39:19.682Z,1007.3
2022-11-07T04:44:20.500Z,1007.3
2022-11-07T04:49:19.753Z,1007.3
2022-11-07T04:54:20.069Z,1007.3
2022-11-07T04:59:20.318Z,1007.2
2022-11-07T05:04:19.942Z,1007.2
2022-11-07T05:09:20.391Z,1007.4
2022-11-07T05:14:19.685Z,1007.4
2022-11-07T05:19:20.501Z,1007.4
2022-11-07T05:24:19.943Z,1007.4
2022-11-07T05:29:20.158Z,1007.4
2022-11-07T05:34:20.465Z,1007.4
2022-11-07T05:39:19.994Z,1007.4
2022-11-07T05:44:20.363Z,1007.4
2022-11-07T05:49:19.612Z,1007.5
2022-11-07T05:54:19.938Z,1007.5
2022-11-07T05:59:20.177Z,1007.5
2022-11-07T06:04:19.690Z,1007.5
2022-11-07T06:09:19.963Z,1007.5
2022-11-07T06:14:20.249Z,1007.5
2022-11-07T06:19:20.567Z,1007.6
2022-11-07T06:24:19.900Z,1007.6
2022-11-07T06:29:20.174Z,1007.7
2022-11-07T06:34:20.395Z,1007.7
2022-11-07T06:39:20.475Z,1007.8
2022-11-07T06:44:19.607Z,1007.8
2022-11-07T06:49:19.904Z,1007.9
2022-11-07T06:54:20.031Z,1007.9
2022-11-07T06:59:20.291Z,1008
2022-11-07T07:04:20.435Z,1008
2022-11-07T07:09:20.049Z,1008.1
2022-11-07T07:14:19.985Z,1008.1
2022-11-07T07:19:20.467Z,1008.2
2022-11-07T07:24:19.725Z,1008.2
2022-11-07T07:29:20.443Z,1008.3
2022-11-07T07:34:20.531Z,1008.3
2022-11-07T07:39:19.884Z,1008.5
2022-11-07T07:44:20.121Z,1008.5
2022-11-07T07:49:20.295Z,1008.4
2022-11-07T07:54:20.627Z,1008.4
2022-11-07T07:59:19.849Z,1008.5
2022-11-07T08:04:20.355Z,1008.5
2022-11-07T08:09:19.989Z,1008.5
2022-11-07T08:14:20.209Z,1008.5
2022-11-07T08:19:20.645Z,1008.6
2022-11-07T08:24:19.962Z,1008.6
2022-11-07T08:29:20.332Z,1008.7
2022-11-07T08:34:20.128Z,1008.7
2022-11-07T08:39:20.464Z,1008.7
2022-11-07T08:44:20.228Z,1008.7
2022-11-07T08:49:20.539Z,1008.8
2022-11-07T08:54:20.515Z,1008.8
2022-11-07T08:59:20.148Z,1008.9
2022-11-07T09:04:19.847Z,1008.9
2022-11-07T09:09:20.878Z,1008.9
2022-11-07T09:14:19.871Z,1008.9
2022-11-07T09:19:20.226Z,1008.8
2022-11-07T09:24:19.951Z,1008.8
2022-11-07T09:29:19.999Z,1008.8
2022-11-07T09:34:20.690Z,1008.8
2022-11-07T09:39:20.177Z,1008.8
2022-11-07T09:44:19.882Z,1008.8
2022-11-07T09:49:20.332Z,1008.9
2022-11-07T09:54:20.674Z,1008.9
2022-11-07T09:59:20.076Z,1009
2022-11-07T10:04:27.101Z,1009
2022-11-07T10:09:20.060Z,1009.1
2022-11-07T10:14:20.514Z,1009.1
2022-11-07T10:19:20.589Z,1009.3
2022-11-07T10:24:19.980Z,1009.3
2022-11-07T10:29:20.295Z,1009.3
2022-11-07T10:34:20.558Z,1009.3
2022-11-07T10:39:19.816Z,1009.4
2022-11-07T10:49:20.111Z,1009.4
2022-11-07T10:54:22.341Z,1009.4
2022-11-07T10:59:20.775Z,1009.5
2022-11-07T11:04:19.806Z,1009.5
2022-11-07T11:09:20.304Z,1009.4
2022-11-07T11:14:20.600Z,1009.4
2022-11-07T11:19:20.103Z,1009.3
2022-11-07T11:24:20.313Z,1009.3
2022-11-07T11:29:20.538Z,1009.3
2022-11-07T11:34:20.182Z,1009.3
2022-11-07T11:39:20.417Z,1009.4
2022-11-07T11:44:20.623Z,1009.4
2022-11-07T11:49:20.625Z,1009.3
2022-11-07T11:54:20.430Z,1009.3
2022-11-07T11:59:20.974Z,1009.4
2022-11-07T12:04:20.262Z,1009.4
2022-11-07T12:09:19.952Z,1009.5
2022-11-07T12:14:20.258Z,1009.5
2022-11-07T12:19:20.704Z,1009.6
2022-11-07T12:24:20.810Z,1009.6
2022-11-07T12:29:20.065Z,1009.7
2022-11-07T12:34:20.596Z,1009.7
2022-11-07T12:39:20.537Z,1009.6
2022-11-07T12:44:20.049Z,1009.6
2022-11-07T12:49:20.163Z,1009.6
2022-11-07T12:54:20.518Z,1009.6
2022-11-07T12:59:20.294Z,1009.6
2022-11-07T13:04:20.249Z,1009.6
2022-11-07T13:09:20.716Z,1009.5
2022-11-07T13:14:24.822Z,1009.5
2022-11-07T13:19:20.275Z,1009.6
2022-11-07T13:24:20.595Z,1009.6
2022-11-07T13:29:20.121Z,1009.6
2022-11-07T13:34:20.482Z,1009.6
2022-11-07T13:39:20.788Z,1009.7
2022-11-07T13:44:20.117Z,1009.7
2022-11-07T13:49:20.574Z,1009.9
2022-11-07T13:54:20.738Z,1009.9
2022-11-07T13:59:20.064Z,1010
2022-11-07T14:04:20.419Z,1010
2022-11-07T14:09:20.773Z,1010
2022-11-07T14:14:20.421Z,1010
2022-11-07T14:19:21.154Z,1010.1
2022-11-07T14:24:20.540Z,1010.1
2022-11-07T14:29:20.742Z,1010.1
2022-11-07T14:34:20.338Z,1010.1
2022-11-07T14:39:20.097Z,1010
2022-11-07T14:44:20.745Z,1010
2022-11-07T14:49:20.511Z,1010.1
2022-11-07T14:54:20.350Z,1010.1
2022-11-07T14:59:20.187Z,1010.1
2022-11-07T15:04:20.609Z,1010.1
2022-11-07T15:09:20.431Z,1010.1
2022-11-07T15:14:20.990Z,1010.1
2022-11-07T15:19:20.916Z,1010.1
2022-11-07T15:24:20.145Z,1010.1
2022-11-07T15:29:20.619Z,1010.1
2022-11-07T15:35:08.048Z,1010.1
2022-11-07T15:39:20.345Z,1010.2
2022-11-07T15:44:20.137Z,1010.2
2022-11-07T15:49:20.714Z,1010.2
2022-11-07T15:54:20.346Z,1010.2
2022-11-07T15:59:19.985Z,1010.2
2022-11-07T16:04:20.425Z,1010.2
2022-11-07T16:09:20.959Z,1010.3
2022-11-07T16:14:44.972Z,1010.3
2022-11-07T16:19:20.744Z,1010.3
2022-11-07T16:24:20.396Z,1010.3
2022-11-07T16:29:20.672Z,1010.4
2022-11-07T16:34:20.238Z,1010.4
2022-11-07T16:39:20.391Z,1010.4
2022-11-07T16:44:26.681Z,1010.4
2022-11-07T16:49:20.172Z,1010.5
2022-11-07T16:54:20.521Z,1010.5
2022-11-07T16:59:21.190Z,1010.5
2022-11-07T17:04:20.472Z,1010.5
2022-11-07T17:09:20.131Z,1010.6
2022-11-07T17:14:20.436Z,1010.6
2022-11-07T17:19:20.751Z,1010.6
2022-11-07T17:24:20.011Z,1010.6
2022-11-07T17:29:20.235Z,1010.7
2022-11-07T17:34:20.942Z,1010.7
2022-11-07T17:39:20.163Z,1010.7
2022-11-07T17:44:20.627Z,1010.7
2022-11-07T17:49:20.310Z,1010.8
2022-11-07T17:54:29.506Z,1010.8
2022-11-07T17:59:20.241Z,1010.9
2022-11-07T18:04:20.418Z,1010.9
2022-11-07T18:09:20.715Z,1010.9
2022-11-07T18:14:20.715Z,1010.9
2022-11-07T18:19:20.853Z,1010.8
2022-11-07T18:24:20.289Z,1010.8
2022-11-07T18:29:20.472Z,1010.8
2022-11-07T18:34:20.862Z,1010.8
2022-11-07T18:39:20.119Z,1010.8
2022-11-07T18:44:20.462Z,1010.8
2022-11-07T18:49:20.633Z,1010.8
2022-11-07T18:54:20.900Z,1010.8
2022-11-07T18:59:20.114Z,1010.9
2022-11-07T19:04:20.429Z,1010.9
2022-11-07T19:09:20.984Z,1010.9
2022-11-07T19:14:21.117Z,1010.9
2022-11-07T19:19:20.984Z,1010.9
2022-11-07T19:24:20.863Z,1010.9
2022-11-07T19:29:20.861Z,1010.9
2022-11-07T19:34:20.464Z,1010.9
2022-11-07T19:39:20.968Z,1011
2022-11-07T19:44:20.380Z,1011
2022-11-07T19:49:20.712Z,1011
2022-11-07T19:54:20.962Z,1011
2022-11-07T19:59:20.181Z,1011.1
2022-11-07T20:04:20.392Z,1011.1
2022-11-07T20:09:20.737Z,1011
2022-11-07T20:14:20.995Z,1011
2022-11-07T20:19:20.285Z,1011.1
2022-11-07T20:24:20.595Z,1011.1
2022-11-07T20:29:20.942Z,1011.1
2022-11-07T20:34:20.284Z,1011.1
2022-11-07T20:39:20.695Z,1011.2
2022-11-07T20:44:21.085Z,1011.2
2022-11-07T20:49:20.589Z,1011.2
2022-11-07T20:54:20.683Z,1011.2
2022-11-07T20:59:20.700Z,1011.2
2022-11-07T21:04:20.172Z,1011.2
2022-11-07T21:09:20.620Z,1011.2
2022-11-07T21:14:20.965Z,1011.2
2022-11-07T21:19:20.385Z,1011.2
2022-11-07T21:24:20.785Z,1011.2
2022-11-07T21:29:29.849Z,1011.2
2022-11-07T21:34:20.654Z,1011.2
2022-11-07T21:39:21.094Z,1011.2
2022-11-07T21:44:20.354Z,1011.2
2022-11-07T21:49:20.567Z,1011.1
2022-11-07T21:54:20.838Z,1011.1
2022-11-07T21:59:21.266Z,1011.1
2022-11-07T22:04:20.441Z,1011.1
2022-11-07T22:09:20.642Z,1011.1
2022-11-07T22:14:20.897Z,1011.1
2022-11-07T22:19:20.526Z,1011.1
2022-11-07T22:24:20.891Z,1011.1
2022-11-07T22:29:20.326Z,1011
2022-11-07T22:34:20.576Z,1011
2022-11-07T22:39:20.834Z,1011
2022-11-07T22:44:20.412Z,1011
2022-11-07T22:49:20.673Z,1011
2022-11-07T22:54:20.916Z,1011
2022-11-07T22:59:20.264Z,1011
2022-11-07T23:04:21.006Z,1011
2022-11-07T23:09:20.559Z,1011
2022-11-07T23:14:20.949Z,1011
2022-11-07T23:19:20.450Z,1011
2022-11-07T23:24:21.131Z,1011
2022-11-07T23:29:20.382Z,1011
2022-11-07T23:34:20.797Z,1011
2022-11-07T23:39:21.325Z,1010.9
2022-11-07T23:44:20.516Z,1010.9
2022-11-07T23:49:20.844Z,1010.8
2022-11-07T23:54:21.133Z,1010.8
2022-11-07T23:59:20.502Z,1010.9
